createdAt,value
2019-04-02T00:01:14.259Z,6.48
2019-04-02T00:03:44.859Z,6.42
2019-04-02T00:06:15.333Z,6.38
2019-04-02T00:08:45.792Z,6.37
2019-04-02T00:11:16.291Z,6.37
2019-04-02T00:13:47.367Z,6.32
2019-04-02T00:16:18.753Z,6.32
2019-04-02T00:18:49.197Z,6.18
2019-04-02T00:21:19.695Z,6.14
2019-04-02T00:23:50.131Z,6.11
2019-04-02T00:26:20.605Z,6.19
2019-04-02T00:28:51.036Z,6.13
2019-04-02T00:31:21.524Z,6.00
2019-04-02T00:33:52.821Z,5.93
2019-04-02T00:36:23.288Z,5.93
2019-04-02T00:38:53.720Z,5.88
2019-04-02T00:41:24.278Z,5.83
2019-04-02T00:43:55.537Z,5.74
2019-04-02T00:46:26.474Z,5.66
2019-04-02T00:48:56.907Z,5.61
2019-04-02T00:51:27.403Z,5.58
2019-04-02T00:53:57.878Z,5.56
2019-04-02T00:56:29.012Z,5.59
2019-04-02T00:58:59.696Z,5.51
2019-04-02T01:01:30.168Z,5.41
2019-04-02T01:04:00.622Z,5.31
2019-04-02T01:06:31.125Z,5.41
2019-04-02T01:09:01.463Z,5.33
2019-04-02T01:11:31.984Z,5.28
2019-04-02T01:14:02.442Z,5.26
2019-04-02T01:16:32.958Z,5.27
2019-04-02T01:19:03.322Z,5.25
2019-04-02T01:21:34.299Z,5.24
2019-04-02T01:24:05.622Z,5.26
2019-04-02T01:26:36.084Z,5.36
2019-04-02T01:29:15.298Z,5.35
2019-04-02T01:31:45.854Z,5.41
2019-04-02T01:34:17.362Z,5.36
2019-04-02T01:36:47.821Z,5.38
2019-04-02T01:39:18.239Z,5.37
2019-04-02T01:41:48.787Z,5.36
2019-04-02T01:44:19.156Z,5.38
2019-04-02T01:46:49.638Z,5.43
2019-04-02T01:49:19.953Z,5.41
2019-04-02T01:51:50.433Z,5.41
2019-04-02T01:54:20.865Z,5.38
2019-04-02T01:56:52.371Z,5.34
2019-04-02T01:59:23.239Z,5.26
2019-04-02T02:01:53.638Z,5.26
2019-04-02T02:04:24.089Z,5.27
2019-04-02T02:06:54.472Z,5.27
2019-04-02T02:09:24.885Z,5.17
2019-04-02T02:11:55.343Z,5.15
2019-04-02T02:14:27.278Z,5.09
2019-04-02T02:16:57.983Z,5.02
2019-04-02T02:19:28.413Z,5.08
2019-04-02T02:21:58.787Z,4.96
2019-04-02T02:24:29.229Z,5.00
2019-04-02T02:26:59.707Z,5.01
2019-04-02T02:29:30.204Z,4.96
2019-04-02T02:32:01.023Z,4.88
2019-04-02T02:34:32.214Z,4.90
2019-04-02T02:37:02.724Z,4.93
2019-04-02T02:39:33.136Z,4.92
2019-04-02T02:42:12.344Z,4.82
2019-04-02T02:44:44.124Z,4.80
2019-04-02T02:47:16.144Z,4.81
2019-04-02T02:49:48.377Z,4.82
2019-04-02T02:52:20.357Z,4.87
2019-04-02T02:54:51.687Z,4.86
2019-04-02T02:57:24.045Z,4.88
2019-04-02T02:59:56.716Z,4.76
2019-04-02T03:02:28.120Z,4.79
2019-04-02T03:05:01.493Z,4.82
2019-04-02T03:07:32.895Z,4.69
2019-04-02T03:10:04.992Z,4.64
2019-04-02T03:12:36.789Z,4.71
2019-04-02T03:15:09.520Z,4.67
2019-04-02T03:17:42.495Z,4.61
2019-04-02T03:20:12.262Z,4.64
2019-04-02T03:22:42.657Z,4.61
2019-04-02T03:25:13.013Z,4.44
2019-04-02T03:27:43.513Z,4.43
2019-04-02T03:30:16.771Z,4.38
2019-04-02T03:32:47.130Z,4.39
2019-04-02T03:35:18.447Z,4.27
2019-04-02T03:37:48.842Z,4.27
2019-04-02T03:40:19.362Z,4.21
2019-04-02T03:42:49.903Z,4.24
2019-04-02T03:45:20.235Z,4.12
2019-04-02T03:47:50.703Z,4.04
2019-04-02T03:50:21.044Z,4.07
2019-04-02T03:52:51.400Z,4.05
2019-04-02T03:55:23.045Z,4.03
2019-04-02T03:57:54.532Z,3.96
2019-04-02T04:00:25.892Z,3.94
2019-04-02T04:02:56.609Z,3.97
2019-04-02T04:05:26.952Z,3.98
2019-04-02T04:07:57.339Z,4.01
2019-04-02T04:10:48.973Z,3.92
2019-04-02T04:13:21.491Z,3.84
2019-04-02T04:15:51.371Z,3.85
2019-04-02T04:18:21.843Z,3.88
2019-04-02T04:20:52.293Z,3.96
2019-04-02T04:23:24.620Z,3.99
2019-04-02T04:25:57.207Z,4.00
2019-04-02T04:28:26.866Z,3.84
2019-04-02T04:30:57.206Z,3.98
2019-04-02T04:33:27.568Z,3.88
2019-04-02T04:35:58.804Z,3.88
2019-04-02T04:38:29.183Z,4.01
2019-04-02T04:40:59.523Z,3.96
2019-04-02T04:43:29.972Z,4.03
2019-04-02T04:46:01.161Z,4.13
2019-04-02T04:48:32.453Z,4.11
2019-04-02T04:51:02.881Z,4.24
2019-04-02T04:53:33.250Z,4.33
2019-04-02T04:56:03.869Z,4.27
2019-04-02T04:58:34.275Z,4.18
2019-04-02T05:01:04.622Z,4.42
2019-04-02T05:04:11.006Z,4.39
2019-04-02T05:06:41.373Z,4.52
2019-04-02T05:09:11.750Z,4.52
2019-04-02T05:11:42.244Z,4.56
2019-04-02T05:14:14.268Z,4.74
2019-04-02T05:16:44.697Z,4.85
2019-04-02T05:19:15.777Z,4.80
2019-04-02T05:21:46.692Z,4.85
2019-04-02T05:24:17.062Z,5.19
2019-04-02T05:26:47.412Z,5.35
2019-04-02T05:29:17.775Z,5.17
2019-04-02T05:31:48.231Z,5.41
2019-04-02T05:34:18.607Z,5.22
2019-04-02T05:36:52.380Z,5.37
2019-04-02T05:39:22.995Z,5.53
2019-04-02T05:41:53.444Z,5.63
2019-04-02T05:44:23.885Z,5.58
2019-04-02T05:46:54.215Z,5.49
2019-04-02T05:49:24.585Z,5.45
2019-04-02T05:51:55.505Z,5.66
2019-04-02T05:54:26.239Z,5.75
2019-04-02T05:56:56.582Z,5.76
2019-04-02T05:59:27.056Z,5.81
2019-04-02T06:01:57.378Z,6.07
2019-04-02T06:04:27.734Z,6.15
2019-04-02T06:06:58.051Z,5.92
2019-04-02T06:09:28.426Z,5.85
2019-04-02T06:12:01.376Z,5.76
2019-04-02T06:14:31.441Z,6.01
2019-04-02T06:17:01.843Z,6.43
2019-04-02T06:19:32.233Z,6.74
2019-04-02T06:22:02.662Z,6.63
2019-04-02T06:24:33.138Z,6.53
2019-04-02T06:27:03.495Z,6.56
2019-04-02T06:29:33.879Z,6.37
2019-04-02T06:32:04.220Z,6.40
2019-04-02T06:34:34.590Z,6.48
2019-04-02T06:37:05.916Z,6.44
2019-04-02T06:39:36.361Z,6.52
2019-04-02T06:42:06.696Z,6.50
2019-04-02T06:44:37.130Z,6.74
2019-04-02T06:47:07.475Z,6.76
2019-04-02T06:49:51.812Z,6.92
2019-04-02T06:52:22.142Z,7.05
2019-04-02T06:54:52.527Z,7.00
2019-04-02T06:57:22.854Z,7.13
2019-04-02T06:59:53.235Z,6.96
2019-04-02T07:02:23.766Z,6.93
2019-04-02T07:04:54.253Z,7.15
2019-04-02T07:07:24.597Z,6.95
2019-04-02T07:09:55.029Z,7.04
2019-04-02T07:12:25.339Z,7.05
2019-04-02T07:14:56.099Z,7.08
2019-04-02T07:17:29.244Z,7.12
2019-04-02T07:20:03.981Z,7.03
2019-04-02T07:22:35.445Z,7.50
2019-04-02T07:25:08.172Z,7.69
2019-04-02T07:27:38.621Z,7.62
2019-04-02T07:30:10.585Z,7.65
2019-04-02T07:32:40.905Z,7.82
2019-04-02T07:35:11.583Z,7.85
2019-04-02T07:37:43.055Z,8.25
2019-04-02T07:40:13.631Z,8.14
2019-04-02T07:42:43.968Z,8.35
2019-04-02T07:45:14.529Z,8.11
2019-04-02T07:47:46.082Z,8.47
2019-04-02T07:50:16.516Z,8.51
2019-04-02T07:52:46.797Z,8.15
2019-04-02T07:55:17.287Z,8.49
2019-04-02T07:57:49.050Z,8.66
2019-04-02T08:00:22.020Z,8.57
2019-04-02T08:02:52.684Z,8.51
2019-04-02T08:05:23.511Z,8.35
2019-04-02T08:07:53.968Z,8.46
2019-04-02T08:10:24.390Z,8.54
2019-04-02T08:12:57.296Z,8.49
2019-04-02T08:15:27.738Z,8.84
2019-04-02T08:17:58.072Z,8.62
2019-04-02T08:20:28.692Z,8.32
2019-04-02T08:23:00.389Z,8.34
2019-04-02T08:25:32.020Z,8.36
2019-04-02T08:28:02.635Z,8.56
2019-04-02T08:30:33.238Z,8.70
2019-04-02T08:33:03.634Z,8.65
2019-04-02T08:35:41.518Z,8.81
2019-04-02T08:38:15.951Z,9.15
2019-04-02T08:40:49.195Z,8.87
2019-04-02T08:43:21.480Z,9.24
2019-04-02T08:45:52.806Z,9.19
2019-04-02T08:48:42.483Z,9.40
2019-04-02T08:51:13.320Z,9.35
2019-04-02T08:53:44.490Z,9.22
2019-04-02T08:56:15.622Z,9.02
2019-04-02T08:58:51.757Z,9.43
2019-04-02T09:01:18.728Z,9.58
2019-04-02T09:03:49.829Z,9.45
2019-04-02T09:06:20.529Z,9.88
2019-04-02T09:08:51.448Z,9.83
2019-04-02T09:11:28.343Z,9.65
2019-04-02T09:13:54.384Z,9.98
2019-04-02T09:16:24.886Z,9.71
2019-04-02T09:18:55.609Z,9.82
2019-04-02T09:21:26.277Z,9.87
2019-04-02T09:23:58.655Z,9.86
2019-04-02T09:26:29.464Z,10.00
2019-04-02T09:29:00.674Z,9.99
2019-04-02T09:31:31.613Z,9.98
2019-04-02T09:34:05.020Z,9.98
2019-04-02T09:36:35.268Z,10.82
2019-04-02T09:39:09.157Z,10.30
2019-04-02T09:41:39.643Z,10.26
2019-04-02T09:44:12.400Z,10.53
2019-04-02T09:46:43.026Z,10.18
2019-04-02T09:49:14.308Z,10.85
2019-04-02T09:51:45.388Z,10.90
2019-04-02T09:54:15.991Z,10.54
2019-04-02T09:56:46.495Z,10.83
2019-04-02T09:59:16.961Z,10.82
2019-04-02T10:01:48.855Z,10.96
2019-04-02T10:04:19.280Z,11.36
2019-04-02T10:06:49.743Z,11.04
2019-04-02T10:09:20.156Z,10.76
2019-04-02T10:11:50.821Z,11.24
2019-04-02T10:14:21.491Z,11.38
2019-04-02T10:16:51.992Z,11.28
2019-04-02T10:19:22.498Z,11.20
2019-04-02T10:21:53.441Z,11.47
2019-04-02T10:24:24.045Z,11.60
2019-04-02T10:26:54.632Z,11.79
2019-04-02T10:29:26.951Z,12.29
2019-04-02T10:31:58.495Z,11.58
2019-04-02T10:34:29.288Z,12.01
2019-04-02T10:37:00.303Z,12.13
2019-04-02T10:39:32.485Z,12.84
2019-04-02T10:42:04.079Z,12.97
2019-04-02T10:44:42.958Z,12.90
2019-04-02T10:47:24.448Z,13.71
2019-04-02T10:49:55.005Z,13.76
2019-04-02T10:52:27.319Z,13.77
2019-04-02T10:54:59.378Z,13.58
2019-04-02T10:57:30.308Z,13.22
2019-04-02T11:00:00.932Z,14.52
2019-04-02T11:02:32.378Z,14.89
2019-04-02T11:05:06.534Z,15.40
2019-04-02T11:07:37.351Z,15.15
2019-04-02T11:10:10.237Z,14.01
2019-04-02T11:12:40.707Z,14.19
2019-04-02T11:15:13.865Z,15.07
2019-04-02T11:17:44.354Z,14.11
2019-04-02T11:20:15.481Z,15.07
2019-04-02T11:22:46.072Z,14.75
2019-04-02T11:25:18.172Z,15.18
2019-04-02T11:27:50.229Z,15.48
2019-04-02T11:30:21.059Z,15.81
2019-04-02T11:32:51.622Z,15.77
2019-04-02T11:35:22.174Z,15.25
2019-04-02T11:37:53.601Z,14.93
2019-04-02T11:40:25.984Z,15.19
2019-04-02T11:42:57.915Z,14.80
2019-04-02T11:45:28.409Z,14.43
2019-04-02T11:47:58.920Z,15.44
2019-04-02T11:50:31.150Z,14.00
2019-04-02T11:53:01.942Z,14.91
2019-04-02T11:55:32.486Z,15.25
2019-04-02T11:58:02.957Z,15.25
2019-04-02T12:00:35.048Z,14.74
2019-04-02T12:03:05.498Z,14.54
2019-04-02T12:05:36.549Z,14.55
2019-04-02T12:08:15.168Z,15.23
2019-04-02T12:10:42.666Z,15.52
2019-04-02T12:13:14.230Z,15.48
2019-04-02T12:15:49.670Z,15.48
2019-04-02T12:18:16.783Z,15.94
2019-04-02T12:20:48.598Z,16.50
2019-04-02T12:23:23.761Z,16.09
2019-04-02T12:25:54.365Z,16.41
2019-04-02T12:28:24.871Z,16.46
2019-04-02T12:30:55.524Z,16.66
2019-04-02T12:33:27.188Z,16.53
2019-04-02T12:35:57.591Z,16.75
2019-04-02T12:38:30.467Z,16.34
2019-04-02T12:41:03.927Z,15.42
2019-04-02T12:43:34.434Z,15.49
2019-04-02T12:46:04.888Z,13.85
2019-04-02T12:48:35.435Z,12.59
2019-04-02T12:51:05.835Z,12.98
2019-04-02T12:53:36.348Z,12.67
2019-04-02T12:56:07.145Z,13.77
2019-04-02T12:58:37.859Z,13.90
2019-04-02T13:01:10.331Z,13.37
2019-04-02T13:03:40.864Z,13.23
2019-04-02T13:06:11.367Z,12.86
2019-04-02T13:08:41.871Z,12.70
2019-04-02T13:11:15.286Z,11.98
2019-04-02T13:13:46.052Z,13.41
2019-04-02T13:16:20.700Z,14.08
2019-04-02T13:18:53.438Z,14.37
2019-04-02T13:21:26.591Z,14.35
2019-04-02T13:23:57.063Z,14.86
2019-04-02T13:26:28.011Z,14.17
2019-04-02T13:28:59.179Z,13.14
2019-04-02T13:31:29.689Z,12.53
2019-04-02T13:34:00.415Z,13.16
2019-04-02T13:36:30.900Z,14.24
2019-04-02T13:39:01.379Z,14.23
2019-04-02T13:41:31.847Z,13.76
2019-04-02T13:44:08.985Z,13.16
2019-04-02T13:46:41.053Z,13.15
2019-04-02T13:49:11.676Z,13.33
2019-04-02T13:51:45.093Z,13.85
2019-04-02T13:54:18.695Z,13.38
2019-04-02T13:56:49.129Z,13.30
2019-04-02T13:59:21.381Z,13.08
2019-04-02T14:01:53.969Z,13.08
2019-04-02T14:04:34.218Z,13.34
2019-04-02T14:07:15.028Z,13.57
2019-04-02T14:09:56.025Z,13.18
2019-04-02T14:12:29.826Z,12.48
2019-04-02T14:15:00.899Z,11.54
2019-04-02T14:17:31.692Z,10.91
2019-04-02T14:20:02.545Z,10.93
2019-04-02T14:22:33.351Z,10.92
2019-04-02T14:25:04.488Z,10.94
2019-04-02T14:27:37.136Z,10.61
2019-04-02T14:30:09.260Z,10.53
2019-04-02T14:32:44.055Z,10.54
2019-04-02T14:35:17.517Z,10.33
2019-04-02T14:37:49.643Z,10.31
2019-04-02T14:40:21.946Z,10.17
2019-04-02T14:42:56.521Z,9.97
2019-04-02T14:45:28.785Z,9.96
2019-04-02T14:48:00.279Z,9.84
2019-04-02T14:50:31.531Z,9.87
2019-04-02T14:53:06.432Z,9.81
2019-04-02T14:55:38.728Z,9.70
2019-04-02T14:58:09.057Z,9.74
2019-04-02T15:00:39.514Z,9.66
2019-04-02T15:03:09.930Z,9.71
2019-04-02T15:05:42.853Z,9.64
2019-04-02T15:08:14.019Z,9.52
2019-04-02T15:13:14.217Z,9.49
2019-04-02T15:15:45.107Z,9.28
2019-04-02T15:18:15.589Z,9.22
2019-04-02T15:21:05.712Z,9.19
2019-04-02T15:23:38.529Z,9.06
2019-04-02T15:26:09.076Z,9.03
2019-04-02T15:28:37.965Z,9.12
2019-04-02T15:31:08.422Z,9.10
2019-04-02T15:33:38.707Z,9.10
2019-04-02T15:36:09.151Z,8.98
2019-04-02T15:38:40.238Z,8.94
2019-04-02T15:41:11.201Z,8.91
2019-04-02T15:43:41.595Z,8.88
2019-04-02T15:46:11.939Z,8.86
2019-04-02T15:48:44.786Z,8.78
2019-04-02T15:51:16.085Z,8.75
2019-04-02T15:53:46.353Z,8.66
2019-04-02T15:58:45.232Z,8.51
2019-04-02T16:01:15.524Z,8.41
2019-04-02T16:03:47.693Z,8.34
2019-04-02T16:06:18.004Z,8.38
2019-04-02T16:08:49.598Z,8.33
2019-04-02T16:11:21.608Z,8.23
2019-04-02T16:13:52.056Z,8.26
2019-04-02T16:16:24.533Z,8.23
2019-04-02T16:18:55.468Z,8.21
2019-04-02T16:21:25.749Z,8.12
2019-04-02T16:26:24.646Z,8.05
2019-04-02T16:28:55.040Z,8.01
2019-04-02T16:31:25.478Z,8.05
2019-04-02T16:33:55.867Z,7.92
2019-04-02T16:36:26.285Z,7.88
2019-04-02T16:38:57.379Z,7.87
2019-04-02T16:41:27.917Z,7.78
2019-04-02T16:43:58.296Z,7.76
2019-04-02T16:46:28.821Z,7.74
2019-04-02T16:48:59.981Z,7.82
2019-04-02T16:51:30.610Z,7.74
2019-04-02T16:54:01.741Z,7.67
2019-04-02T16:56:32.206Z,7.58
2019-04-02T16:59:02.601Z,7.49
2019-04-02T17:01:34.813Z,7.49
2019-04-02T17:04:05.323Z,7.43
2019-04-02T17:06:36.462Z,7.40
2019-04-02T17:09:07.863Z,7.41
2019-04-02T17:11:38.391Z,7.47
2019-04-02T17:14:08.810Z,7.29
2019-04-02T17:16:39.591Z,7.28
2019-04-02T17:19:10.356Z,7.28
2019-04-02T17:21:46.697Z,7.22
2019-04-02T17:24:12.872Z,7.15
2019-04-02T17:26:43.325Z,7.10
2019-04-02T17:29:13.708Z,7.00
2019-04-02T17:31:44.166Z,7.04
2019-04-02T17:34:14.541Z,7.04
2019-04-02T17:36:45.406Z,7.00
2019-04-02T17:39:17.422Z,6.95
2019-04-02T17:41:50.258Z,6.85
2019-04-02T17:44:20.000Z,6.86
2019-04-02T17:46:50.418Z,6.83
2019-04-02T17:49:20.815Z,6.88
2019-04-02T17:51:51.329Z,6.80
2019-04-02T17:54:21.709Z,6.75
2019-04-02T17:56:52.062Z,6.70
2019-04-02T17:59:22.441Z,6.67
2019-04-02T18:01:52.865Z,6.57
2019-04-02T18:04:23.250Z,6.66
2019-04-02T18:06:54.995Z,6.64
2019-04-02T18:09:25.786Z,6.56
2019-04-02T18:11:56.098Z,6.43
2019-04-02T18:14:26.488Z,6.54
2019-04-02T18:16:56.837Z,6.37
2019-04-02T18:19:27.170Z,6.27
2019-04-02T18:21:57.587Z,6.15
2019-04-02T18:24:27.977Z,6.17
2019-04-02T18:26:58.399Z,6.16
2019-04-02T18:29:28.797Z,6.10
2019-04-02T18:32:01.473Z,6.10
2019-04-02T18:34:31.292Z,6.12
2019-04-02T18:37:01.728Z,6.01
2019-04-02T18:39:34.578Z,5.90
2019-04-02T18:42:04.234Z,5.92
2019-04-02T18:44:34.640Z,5.95
2019-04-02T18:47:05.070Z,5.96
2019-04-02T18:49:35.480Z,5.88
2019-04-02T18:52:06.005Z,5.84
2019-04-02T18:54:36.348Z,5.86
2019-04-02T18:57:06.766Z,5.83
2019-04-02T18:59:37.171Z,5.91
2019-04-02T19:02:07.621Z,5.77
2019-04-02T19:04:37.910Z,5.79
2019-04-02T19:07:08.350Z,5.83
2019-04-02T19:09:38.744Z,5.74
2019-04-02T19:12:13.239Z,5.65
2019-04-02T19:14:41.282Z,5.60
2019-04-02T19:17:11.706Z,5.63
2019-04-02T19:19:42.136Z,5.63
2019-04-02T19:22:12.558Z,5.62
2019-04-02T19:24:42.975Z,5.62
2019-04-02T19:27:13.422Z,5.51
2019-04-02T19:29:43.826Z,5.32
2019-04-02T19:32:14.280Z,5.32
2019-04-02T19:34:44.677Z,5.30
2019-04-02T19:37:15.551Z,5.17
2019-04-02T19:39:48.070Z,5.18
2019-04-02T19:42:18.099Z,5.16
2019-04-02T19:44:48.485Z,5.19
2019-04-02T19:47:18.928Z,5.15
2019-04-02T19:49:49.252Z,5.04
2019-04-02T19:52:19.776Z,5.05
2019-04-02T19:54:50.149Z,5.02
2019-04-02T19:57:20.705Z,5.14
2019-04-02T19:59:51.047Z,5.00
2019-04-02T20:02:19.920Z,4.99
2019-04-02T20:04:50.258Z,5.01
2019-04-02T20:07:20.641Z,4.99
2019-04-02T20:09:51.064Z,4.92
2019-04-02T20:12:21.467Z,4.93
2019-04-02T20:14:51.806Z,4.96
2019-04-02T20:17:22.103Z,4.95
2019-04-02T20:19:52.537Z,5.01
2019-04-02T20:22:22.808Z,4.92
2019-04-02T20:24:53.162Z,4.88
2019-04-02T20:27:23.547Z,4.92
2019-04-02T20:29:53.963Z,4.80
2019-04-02T20:32:24.348Z,4.87
2019-04-02T20:34:54.799Z,4.88
2019-04-02T20:37:26.665Z,4.90
2019-04-02T20:39:58.811Z,4.82
2019-04-02T20:42:29.672Z,4.88
2019-04-02T20:45:02.010Z,4.84
2019-04-02T20:47:33.511Z,4.65
2019-04-02T20:50:06.567Z,4.75
2019-04-02T20:52:38.159Z,4.61
2019-04-02T20:55:11.239Z,4.58
2019-04-02T20:57:42.615Z,4.59
2019-04-02T21:02:57.384Z,4.67
2019-04-02T21:05:28.663Z,4.64
2019-04-02T21:07:59.347Z,4.44
2019-04-02T21:10:32.508Z,4.46
2019-04-02T21:13:13.784Z,4.50
2019-04-02T21:15:37.187Z,4.44
2019-04-02T21:18:07.542Z,4.42
2019-04-02T21:20:37.937Z,4.41
2019-04-02T21:23:08.278Z,4.39
2019-04-02T21:25:41.019Z,4.15
2019-04-02T21:28:10.825Z,4.24
2019-04-02T21:30:41.219Z,4.14
2019-04-02T21:33:11.668Z,4.09
2019-04-02T21:35:44.347Z,4.09
2019-04-02T21:38:14.201Z,4.14
2019-04-02T21:40:44.975Z,3.82
2019-04-02T21:43:15.419Z,3.89
2019-04-02T21:45:45.805Z,3.81
2019-04-02T21:48:16.240Z,3.87
2019-04-02T21:50:46.625Z,3.95
2019-04-02T21:53:17.026Z,3.84
2019-04-02T21:55:47.335Z,3.84
2019-04-02T21:58:17.681Z,3.78
2019-04-02T22:00:52.455Z,3.63
2019-04-02T22:03:22.927Z,3.63
2019-04-02T22:05:53.417Z,3.70
2019-04-02T22:08:23.809Z,3.65
2019-04-02T22:10:54.112Z,3.67
2019-04-02T22:13:24.500Z,3.64
2019-04-02T22:15:54.893Z,3.70
2019-04-02T22:18:25.248Z,3.77
2019-04-02T22:20:55.641Z,3.64
2019-04-02T22:23:26.050Z,3.66
2019-04-02T22:25:56.323Z,3.66
2019-04-02T22:28:26.773Z,3.63
2019-04-02T22:30:57.234Z,3.59
2019-04-02T22:33:36.941Z,3.54
2019-04-02T22:35:58.822Z,3.43
2019-04-02T22:38:29.131Z,3.53
2019-04-02T22:40:59.467Z,3.50
2019-04-02T22:43:29.921Z,3.61
2019-04-02T22:46:00.428Z,3.66
2019-04-02T22:48:30.860Z,3.68
2019-04-02T22:51:01.135Z,3.61
2019-04-02T22:53:31.528Z,3.57
2019-04-02T22:56:02.766Z,3.40
2019-04-02T22:58:33.443Z,3.43
2019-04-02T23:03:53.349Z,3.25
2019-04-02T23:06:23.808Z,3.23
2019-04-02T23:08:54.312Z,3.14
2019-04-02T23:11:24.730Z,3.15
2019-04-02T23:13:55.243Z,3.03
2019-04-02T23:16:29.559Z,3.14
2019-04-02T23:19:07.534Z,3.11
2019-04-02T23:21:30.019Z,2.94
2019-04-02T23:24:00.544Z,3.07
2019-04-02T23:26:30.955Z,3.08
2019-04-02T23:29:01.397Z,2.90
2019-04-02T23:31:31.860Z,2.82
2019-04-02T23:34:02.319Z,2.83
2019-04-02T23:36:32.733Z,2.83
2019-04-02T23:39:04.118Z,2.91
2019-04-02T23:41:34.535Z,2.92
2019-04-02T23:44:07.726Z,2.73
2019-04-02T23:46:37.105Z,2.76
2019-04-02T23:49:07.588Z,2.65
2019-04-02T23:51:37.907Z,2.67
2019-04-02T23:54:08.425Z,2.63
2019-04-02T23:56:38.877Z,2.69
2019-04-02T23:59:09.393Z,2.57
